createdAt,value
2022-10-13T00:05:06.420Z,94.07
2022-10-13T00:15:12.026Z,92.23
2022-10-13T00:25:15.282Z,94.00
2022-10-13T00:35:22.659Z,90.60
2022-10-13T00:45:27.560Z,93.20
2022-10-13T00:55:35.753Z,91.80
2022-10-13T01:05:40.186Z,90.77
2022-10-13T01:15:52.919Z,91.63
2022-10-13T01:26:23.941Z,92.20
2022-10-13T01:36:41.126Z,92.63
2022-10-13T01:46:46.378Z,91.57
2022-10-13T01:56:55.426Z,88.27
2022-10-13T02:07:05.282Z,90.63
2022-10-13T02:17:11.641Z,88.77
2022-10-13T02:27:17.870Z,89.57
2022-10-13T02:37:25.375Z,88.37
2022-10-13T02:47:28.601Z,91.07
2022-10-13T02:57:33.509Z,88.03
2022-10-13T03:07:36.871Z,89.37
2022-10-13T03:17:41.477Z,88.07
2022-10-13T03:27:44.803Z,87.73
2022-10-13T03:37:49.391Z,85.67
2022-10-13T03:47:52.666Z,87.47
2022-10-13T03:57:57.849Z,89.13
2022-10-13T04:08:01.102Z,87.17
2022-10-13T04:18:07.430Z,90.10
2022-10-13T04:28:13.655Z,93.67
2022-10-13T04:38:18.310Z,91.87
2022-10-13T04:48:21.529Z,92.43
2022-10-13T04:58:28.784Z,93.67
2022-10-13T05:08:37.475Z,95.30
2022-10-13T05:18:42.795Z,94.17
2022-10-13T05:28:46.767Z,95.90
2022-10-13T05:38:54.753Z,93.87
2022-10-13T05:48:57.987Z,97.43
2022-10-13T05:59:06.695Z,95.60
2022-10-13T06:09:10.151Z,93.33
2022-10-13T06:19:14.859Z,104.33
2022-10-13T06:29:18.152Z,95.57
2022-10-13T06:39:22.744Z,93.20
2022-10-13T06:49:26.232Z,98.27
2022-10-13T06:59:30.812Z,98.67
2022-10-13T07:09:34.049Z,99.77
2022-10-13T07:19:39.810Z,100.27
2022-10-13T07:29:43.062Z,104.13
2022-10-13T07:39:47.684Z,103.43
2022-10-13T07:49:50.913Z,104.47
2022-10-13T07:59:55.549Z,107.37
2022-10-13T08:09:58.906Z,110.80
2022-10-13T08:20:03.625Z,115.80
2022-10-13T08:30:10.405Z,117.37
2022-10-13T08:40:21.207Z,120.80
2022-10-13T08:50:27.981Z,124.72
2022-10-13T09:00:32.706Z,129.07
2022-10-13T09:10:47.781Z,129.65
2022-10-13T09:21:19.865Z,130.63
2022-10-13T09:31:27.471Z,127.95
2022-10-13T09:41:32.310Z,131.70
2022-10-13T09:51:41.075Z,137.38
2022-10-13T10:01:59.637Z,137.32
2022-10-13T10:12:05.524Z,137.57
2022-10-13T10:22:20.715Z,146.73
2022-10-13T10:32:30.366Z,138.10
2022-10-13T10:42:57.805Z,144.25
2022-10-13T10:53:07.747Z,143.05
2022-10-13T11:03:26.188Z,144.98
2022-10-13T11:13:29.489Z,148.60
2022-10-13T11:23:35.579Z,148.00
2022-10-13T11:34:01.235Z,148.57
2022-10-13T11:44:16.301Z,150.20
2022-10-13T11:54:32.075Z,144.40
2022-10-13T12:04:46.852Z,150.73
2022-10-13T12:14:53.202Z,146.90
2022-10-13T12:25:05.153Z,142.73
2022-10-13T12:35:18.746Z,142.93
2022-10-13T12:45:25.578Z,144.82
2022-10-13T12:55:29.181Z,133.75
2022-10-13T13:05:37.494Z,140.38
2022-10-13T13:15:41.681Z,136.18
2022-10-13T13:25:46.373Z,142.43
2022-10-13T13:35:49.663Z,134.68
2022-10-13T13:45:54.282Z,138.45
2022-10-13T13:55:57.490Z,129.20
2022-10-13T14:06:02.138Z,130.52
2022-10-13T14:16:06.521Z,125.35
2022-10-13T14:26:11.157Z,125.68
2022-10-13T14:36:14.439Z,122.10
2022-10-13T14:46:19.043Z,115.00
2022-10-13T14:56:24.570Z,109.40
2022-10-13T15:06:32.949Z,106.60
2022-10-13T15:16:37.865Z,106.00
2022-10-13T15:26:42.472Z,99.83
2022-10-13T15:36:46.475Z,105.27
2022-10-13T15:47:07.107Z,101.77
2022-10-13T15:57:11.333Z,99.53
2022-10-13T16:07:18.414Z,99.57
2022-10-13T16:17:21.866Z,95.83
2022-10-13T16:27:26.742Z,96.27
2022-10-13T16:37:30.027Z,97.83
2022-10-13T16:47:35.074Z,95.50
2022-10-13T16:57:38.480Z,103.33
2022-10-13T17:07:43.165Z,89.97
2022-10-13T17:17:46.633Z,104.10
2022-10-13T17:27:51.252Z,95.20
2022-10-13T17:37:54.787Z,92.23
2022-10-13T17:47:59.933Z,122.53
2022-10-13T17:58:06.734Z,119.93
2022-10-13T18:08:11.431Z,112.37
2022-10-13T18:18:14.871Z,111.17
2022-10-13T18:28:19.560Z,96.23
2022-10-13T18:38:24.565Z,112.30
2022-10-13T18:48:29.574Z,103.70
2022-10-13T18:58:33.100Z,109.10
2022-10-13T19:08:38.092Z,102.43
2022-10-13T19:18:41.783Z,102.40
2022-10-13T19:28:48.161Z,95.70
2022-10-13T19:38:52.299Z,108.83
2022-10-13T19:48:56.950Z,92.60
2022-10-13T19:59:01.182Z,100.23
2022-10-13T20:09:06.966Z,103.40
2022-10-13T20:19:13.262Z,105.13
2022-10-13T20:29:19.456Z,107.30
2022-10-13T20:39:23.013Z,110.33
2022-10-13T20:49:27.709Z,103.43
2022-10-13T20:59:31.049Z,106.97
2022-10-13T21:09:35.890Z,100.83
2022-10-13T21:19:39.403Z,102.37
2022-10-13T21:29:44.028Z,104.80
2022-10-13T21:39:48.801Z,103.47
2022-10-13T21:49:54.715Z,106.83
2022-10-13T21:59:57.976Z,98.67
2022-10-13T22:10:02.684Z,102.10
2022-10-13T22:20:07.114Z,102.53
2022-10-13T22:30:13.197Z,107.73
2022-10-13T22:40:16.660Z,103.97
2022-10-13T22:50:21.242Z,105.30
2022-10-13T23:00:24.608Z,108.50
2022-10-13T23:10:29.248Z,108.73
2022-10-13T23:20:32.460Z,108.67
2022-10-13T23:30:37.957Z,107.17
2022-10-13T23:40:41.264Z,107.30
2022-10-13T23:50:45.925Z,108.27
